Moosomin, Canada
Current Conditions -  °F | °C
As of 2:43 AM on Saturday 29 Nov 2014 (Local Time) from CYBR Reporting Station
Light Snow Light Snow  
Wind Chill: -6°   Ceiling: 4100
Heat Index:   Visibility: 4mi
Dew Point:   Wind: 10mph
Humidity: 85%   Direction: 40°NE
Pressure: 29.49"   Gusts: NA
Location:  50.15°N, 101.67°W
Report Text: CYBR 290843Z 04009KT 4SM -SN OVC041 M13/M15 A2949 RMK SC8 SLP024
Loading
Personal Weather Stations






























Interactive Weather Map New forecast layout! Learn more

10-Day Weather Forecast

Advertisements
Track Severe Weather on mobile